Voyager — C6WC2 — position and weather

sailwx.info

Track history (hours):
 
Tides and Currents Weather Stations Pressure Air Temp Water Temp Dewpoint Dewpoint Depression Visibility Wind Speed Wind Dir Waves Ship Positions

Voyager

Last reported at 2014-Sep-03 00:28 UTC. Time now 2014-Sep-03 02:31 UTC.
Position N 44°37' W 002°13'.

Length 151 m; draft 6 m.

Type: Passenger vessel. MMSI: 309695000.

Date/timePositionNaut miles runAvg speedWind from/ knotsBaromVisibWave heightAir tempDewpointWater temp
2014-Sep-03 00:28N 44°37' W 002°13'72 3.5
2014-Sep-02 03:33N 45°38' W 001°18'1111.4
2014-Sep-02 02:33N 45°40' W 001°34'1313.2
2014-Sep-02 01:33N 45°47' W 001°50'1514.1
2014-Sep-02 00:30N 45°54' W 002°09'1314.0
2014-Sep-01 23:33N 46°01' W 002°25'1413.7
2014-Sep-01 22:34N 46°09' W 002°41'1713.5
2014-Sep-01 21:19N 46°22' W 002°57'1213.7
2014-Sep-01 20:26N 46°31' W 003°09'2714.5
2014-Sep-01 18:33N 46°51' W 003°36'1414.3
2014-Sep-01 17:33N 47°01' W 003°50'1714.8
2014-Sep-01 16:24N 47°14' W 004°06'1315.0
2014-Sep-01 15:33N 47°23' W 004°20'1514.9
2014-Sep-01 14:33N 47°34' W 004°36'1414.3
2014-Sep-01 13:33N 47°45' W 004°49'1414.5
2014-Sep-01 12:33N 47°55' W 005°04'1515.0
2014-Sep-01 11:33N 48°06' W 005°20'9 8.8
2014-Sep-01 10:33N 48°12' W 005°29'1514.5
2014-Sep-01 09:33N 48°20' W 005°47'1212.2
2014-Sep-01 08:33N 48°32' W 005°54'1212.1
2014-Sep-01 07:33N 48°44' W 005°55'1413.6
2014-Sep-01 06:33N 48°55' W 005°45'1414.2
2014-Sep-01 05:33N 49°02' W 005°26'1414.3
2014-Sep-01 04:33N 49°09' W 005°06'1413.8
2014-Sep-01 03:33N 49°09' W 004°45'1514.7
2014-Sep-01 02:33N 49°07' W 004°23'1717.1
2014-Sep-01 01:33N 49°04' W 003°57'1717.4
2014-Sep-01 00:33N 49°02' W 003°31'1817.1
2014-Aug-31 23:31N 48°60' W 003°04'1616.6
2014-Aug-31 22:33N 48°58' W 002°40'1613.9
2014-Aug-31 21:24N 48°47' W 002°22'1214.2
2014-Aug-31 20:33N 48°42' W 002°05'0 0.0
2014-Aug-31 08:29N 48°42' W 002°06'14012.3
2014-Aug-30 21:05N 50°32' E 000°06'816.1
2014-Aug-30 20:33N 50°34' E 000°19'1716.9
2014-Aug-30 19:34N 50°40' E 000°44'3316.4
2014-Aug-30 17:34N 51°02' E 001°24'1514.5
2014-Aug-30 16:34N 51°10' E 001°42'1414.2
2014-Aug-30 15:33N 51°22' E 001°55'1413.6
2014-Aug-30 14:32N 51°21' E 002°17'1414.8
2014-Aug-30 13:33N 51°23' E 002°40'1110.5
2014-Aug-30 12:33N 51°16' E 002°53'3 2.7
2014-Aug-30 11:33N 51°14' E 002°56'0 0.0
2014-Aug-30 10:33N 51°14' E 002°56'0 0.0
2014-Aug-30 09:33N 51°14' E 002°56'0 0.0
2014-Aug-30 08:33N 51°14' E 002°56'0 0.0
2014-Aug-30 07:33N 51°14' E 002°56'0 0.0
2014-Aug-30 06:33N 51°14' E 002°56'0 0.3
2014-Aug-30 05:34N 51°14' E 002°55'10 9.8
2014-Aug-30 04:33N 51°22' E 002°46'1110.2
2014-Aug-30 03:31N 51°32' E 002°43'2510.9
2014-Aug-30 01:13N 51°57' E 002°37'  
Track history (hours):
 
Tides and Currents Weather Stations Pressure Air Temp Water Temp Dewpoint Dewpoint Depression Visibility Wind Speed Wind Dir Waves Ship Positions

Voyager

Last reported at 2014-Sep-03 00:28 UTC. Time now 2014-Sep-03 02:31 UTC.
Position N 44°37' W 002°13'.

Length 151 m; draft 6 m.

Type: Passenger vessel. MMSI: 309695000.

Date/timePositionNaut miles runAvg speedWind from/ knotsBaromVisibWave heightAir tempDewpointWater temp
2014-Sep-03 00:28N 44°37' W 002°13'72 3.5
2014-Sep-02 03:33N 45°38' W 001°18'1111.4
2014-Sep-02 02:33N 45°40' W 001°34'1313.2
2014-Sep-02 01:33N 45°47' W 001°50'1514.1
2014-Sep-02 00:30N 45°54' W 002°09'1314.0
2014-Sep-01 23:33N 46°01' W 002°25'1413.7
2014-Sep-01 22:34N 46°09' W 002°41'1713.5
2014-Sep-01 21:19N 46°22' W 002°57'1213.7
2014-Sep-01 20:26N 46°31' W 003°09'2714.5
2014-Sep-01 18:33N 46°51' W 003°36'1414.3
2014-Sep-01 17:33N 47°01' W 003°50'1714.8
2014-Sep-01 16:24N 47°14' W 004°06'1315.0
2014-Sep-01 15:33N 47°23' W 004°20'1514.9
2014-Sep-01 14:33N 47°34' W 004°36'1414.3
2014-Sep-01 13:33N 47°45' W 004°49'1414.5
2014-Sep-01 12:33N 47°55' W 005°04'1515.0
2014-Sep-01 11:33N 48°06' W 005°20'9 8.8
2014-Sep-01 10:33N 48°12' W 005°29'1514.5
2014-Sep-01 09:33N 48°20' W 005°47'1212.2
2014-Sep-01 08:33N 48°32' W 005°54'1212.1
2014-Sep-01 07:33N 48°44' W 005°55'1413.6
2014-Sep-01 06:33N 48°55' W 005°45'1414.2
2014-Sep-01 05:33N 49°02' W 005°26'1414.3
2014-Sep-01 04:33N 49°09' W 005°06'1413.8
2014-Sep-01 03:33N 49°09' W 004°45'1514.7
2014-Sep-01 02:33N 49°07' W 004°23'1717.1
2014-Sep-01 01:33N 49°04' W 003°57'1717.4
2014-Sep-01 00:33N 49°02' W 003°31'1817.1
2014-Aug-31 23:31N 48°60' W 003°04'1616.6
2014-Aug-31 22:33N 48°58' W 002°40'1613.9
2014-Aug-31 21:24N 48°47' W 002°22'1214.2
2014-Aug-31 20:33N 48°42' W 002°05'0 0.0
2014-Aug-31 08:29N 48°42' W 002°06'14012.3
2014-Aug-30 21:05N 50°32' E 000°06'816.1
2014-Aug-30 20:33N 50°34' E 000°19'1716.9
2014-Aug-30 19:34N 50°40' E 000°44'3316.4
2014-Aug-30 17:34N 51°02' E 001°24'1514.5
2014-Aug-30 16:34N 51°10' E 001°42'1414.2
2014-Aug-30 15:33N 51°22' E 001°55'1413.6
2014-Aug-30 14:32N 51°21' E 002°17'1414.8
2014-Aug-30 13:33N 51°23' E 002°40'1110.5
2014-Aug-30 12:33N 51°16' E 002°53'3 2.7
2014-Aug-30 11:33N 51°14' E 002°56'0 0.0
2014-Aug-30 10:33N 51°14' E 002°56'0 0.0
2014-Aug-30 09:33N 51°14' E 002°56'0 0.0
2014-Aug-30 08:33N 51°14' E 002°56'0 0.0
2014-Aug-30 07:33N 51°14' E 002°56'0 0.0
2014-Aug-30 06:33N 51°14' E 002°56'0 0.3
2014-Aug-30 05:34N 51°14' E 002°55'10 9.8
2014-Aug-30 04:33N 51°22' E 002°46'1110.2
2014-Aug-30 03:31N 51°32' E 002°43'2510.9
2014-Aug-30 01:13N 51°57' E 002°37'  

Dump ship's entire track history